.
WxDataArchive / Data Records for 2008-03-15
2008-03-14 March 2008 2008-03-16

Data Records for Saturday, 15 March 2008

Time	Temp	Chill	HIndex	Humid	Dewpt	 Wind 	HiWind	WindDir	Rain 	Barom 
-----	----	-----	------	-----	-----	------	------	-------	-----	----- 
00:00	37.2	37.2	37.2	84	32.8	0	0	---	0.00	29.704 
00:05	37.0	37.0	37.0	84	32.6	0	0	---	0.00	29.705 
00:10	37.0	37.0	37.0	85	32.9	0	0	---	0.00	29.706 
00:15	36.9	36.9	36.9	85	32.8	0	0	---	0.00	29.705 
00:20	36.8	36.8	36.8	85	32.7	0	0	---	0.00	29.704 
00:25	36.5	36.5	36.5	85	32.4	0	0	---	0.00	29.705 
00:30	36.3	36.3	36.3	85	32.2	0	0	---	0.00	29.706 
00:35	36.2	36.2	36.2	86	32.4	0	0	---	0.00	29.706 
00:40	36.0	36.0	36.0	86	32.2	0	0	---	0.00	29.707 
00:45	35.9	35.9	35.9	86	32.1	0	0	---	0.00	29.707 
00:50	35.8	35.8	35.8	86	32.0	0	0	---	0.00	29.706 
00:55	35.5	35.5	35.5	86	31.7	0	0	---	0.00	29.706 
01:00	35.2	35.2	35.2	86	31.4	0	0	---	0.00	29.709 
01:05	34.9	34.9	34.9	86	31.1	0	0	---	0.00	29.708 
01:10	34.6	34.6	34.6	86	30.9	0	0	---	0.00	29.711 
01:15	34.4	34.4	34.4	86	30.7	0	0	---	0.00	29.716 
01:20	34.3	34.3	34.3	86	30.6	0	0	---	0.00	29.716 
01:25	34.1	34.1	34.1	86	30.4	0	0	---	0.00	29.718 
01:30	34.0	34.0	34.0	86	30.3	0	0	---	0.00	29.718 
01:35	33.8	33.8	33.8	86	30.1	0	0	---	0.00	29.720 
01:40	33.7	33.7	33.7	86	30.0	0	0	---	0.00	29.722 
01:45	33.4	33.4	33.4	86	29.7	0	0	---	0.00	29.723 
01:50	33.1	33.1	33.1	86	29.4	0	0	---	0.00	29.724 
01:55	32.9	32.9	32.9	86	29.2	0	0	---	0.00	29.724 
02:00	32.8	32.8	32.8	86	29.1	0	0	---	0.00	29.724 
02:05	32.7	32.7	32.7	86	29.0	0	0	---	0.00	29.724 
02:10	32.7	32.7	32.7	86	29.0	0	0	---	0.00	29.725 
02:15	32.4	32.4	32.4	86	28.7	0	0	---	0.00	29.726 
02:20	32.2	32.2	32.2	86	28.5	0	0	---	0.00	29.724 
02:25	32.1	32.1	32.1	86	28.4	0	0	---	0.00	29.722 
02:30	31.9	31.9	31.9	86	28.2	0	0	---	0.00	29.723 
02:35	31.9	31.9	31.9	87	28.5	0	0	---	0.00	29.723 
02:40	31.8	31.8	31.8	87	28.4	0	0	---	0.00	29.723 
02:45	31.8	31.8	31.8	87	28.4	0	0	---	0.00	29.724 
02:50	31.8	31.8	31.8	87	28.4	0	0	---	0.00	29.724 
02:55	31.6	31.6	31.6	87	28.2	0	0	---	0.00	29.727 
03:00	31.5	31.5	31.5	87	28.1	0	0	---	0.00	29.731 
03:05	31.5	31.5	31.5	87	28.1	0	0	---	0.00	29.737 
03:10	31.3	31.3	31.3	87	27.9	0	0	---	0.00	29.734 
03:15	31.3	31.3	31.3	87	27.9	0	0	---	0.00	29.740 
03:20	31.3	31.3	31.3	87	27.9	0	0	---	0.00	29.739 
03:25	31.3	31.3	31.3	86	27.6	0	0	---	0.00	29.737 
03:30	31.3	31.3	31.3	86	27.6	0	0	---	0.00	29.734 
03:35	31.2	31.2	31.2	86	27.5	0	0	---	0.00	29.736 
03:40	31.3	31.3	31.3	86	27.6	0	0	---	0.00	29.730 
03:45	31.5	31.5	31.5	87	28.1	0	0	---	0.00	29.726 
03:50	31.6	31.6	31.6	86	27.9	0	0	---	0.00	29.726 
03:55	31.6	31.6	31.6	86	27.9	0	0	---	0.00	29.726 
04:00	31.6	31.6	31.6	86	27.9	0	0	---	0.00	29.724 
04:05	31.5	31.5	31.5	86	27.8	0	0	---	0.00	29.720 
04:10	31.6	31.6	31.6	87	28.2	0	0	---	0.00	29.717 
04:15	31.8	31.8	31.8	87	28.4	0	0	---	0.00	29.711 
04:20	32.1	32.1	32.1	88	29.0	0	0	---	0.00	29.711 
04:25	32.4	32.4	32.4	88	29.3	0	1	248	0.00	29.711 
04:30	32.5	32.5	32.5	88	29.3	0	0	---	0.00	29.712 
04:35	32.5	32.5	32.5	88	29.3	0	0	---	0.00	29.720 
04:40	32.8	32.8	32.8	88	29.6	0	0	---	0.00	29.724 
04:45	32.9	32.9	32.9	88	29.7	0	0	---	0.00	29.724 
04:50	32.9	32.9	32.9	87	29.5	0	0	---	0.00	29.723 
04:55	32.9	32.9	32.9	87	29.5	0	0	---	0.00	29.723 
05:00	32.9	32.9	32.9	87	29.5	0	0	---	0.00	29.725 
05:05	32.8	32.8	32.8	87	29.4	0	0	---	0.00	29.727 
05:10	32.9	32.9	32.9	87	29.5	0	0	---	0.00	29.727 
05:15	33.1	33.1	33.1	87	29.7	0	0	---	0.00	29.724 
05:20	33.2	33.2	33.2	87	29.8	0	0	---	0.00	29.724 
05:25	33.7	33.7	33.7	87	30.3	0	1	248	0.00	29.723 
05:30	34.0	34.0	34.0	87	30.5	0	0	---	0.00	29.719 
05:35	34.1	34.1	34.1	86	30.4	0	1	248	0.00	29.715 
05:40	34.3	34.3	34.3	85	30.3	0	0	---	0.00	29.721 
05:45	34.4	34.4	34.4	85	30.4	0	0	---	0.00	29.719 
05:50	34.6	34.6	34.6	85	30.6	0	0	---	0.00	29.722 
05:55	34.7	34.7	34.7	84	30.4	0	0	---	0.00	29.724 
06:00	34.9	34.9	34.9	84	30.6	0	1	248	0.00	29.738 
06:05	34.9	34.9	34.9	83	30.3	0	0	---	0.00	29.750 
06:10	35.0	35.0	35.0	82	30.1	0	0	---	0.00	29.756 
06:15	35.0	35.0	35.0	82	30.1	0	0	---	0.00	29.759 
06:20	35.0	35.0	35.0	82	30.1	0	0	---	0.00	29.761 
06:25	35.2	35.2	35.2	81	30.0	0	0	---	0.00	29.767 
06:30	35.3	35.3	35.3	80	29.8	0	0	---	0.00	29.768 
06:35	35.3	35.3	35.3	80	29.8	0	0	---	0.00	29.766 
06:40	35.3	35.3	35.3	80	29.8	0	0	---	0.00	29.760 
06:45	35.3	35.3	35.3	80	29.8	0	0	---	0.00	29.760 
06:50	35.3	35.3	35.3	80	29.8	0	0	---	0.00	29.760 
06:55	35.2	35.2	35.2	80	29.7	0	0	---	0.00	29.760 
07:00	35.2	35.2	35.2	80	29.7	0	1	248	0.00	29.761 
07:05	35.2	35.2	35.2	80	29.7	0	0	---	0.00	29.765 
07:10	35.2	35.2	35.2	80	29.7	0	1	248	0.00	29.765 
07:15	35.2	35.2	35.2	79	29.4	0	1	248	0.00	29.762 
07:20	35.2	35.2	35.2	79	29.4	0	0	---	0.00	29.764 
07:25	35.2	35.2	35.2	79	29.4	0	0	---	0.00	29.764 
07:30	35.3	35.3	35.3	79	29.4	0	1	248	0.00	29.766 
07:35	35.3	35.3	35.3	78	29.1	0	1	248	0.00	29.767 
07:40	35.5	35.5	35.5	78	29.3	0	1	248	0.00	29.771 
07:45	35.5	35.5	35.5	78	29.3	0	1	248	0.00	29.771 
07:50	35.5	35.5	35.5	78	29.3	0	1	248	0.00	29.773 
07:55	35.5	35.5	35.5	77	29.0	0	1	248	0.00	29.773 
08:00	35.6	35.6	35.6	77	29.1	0	1	270	0.00	29.775 
08:05	35.6	35.6	35.6	76	28.8	0	2	270	0.00	29.781 
08:10	35.8	35.8	35.8	75	28.7	0	3	45	0.00	29.781 
08:15	35.9	35.9	35.9	75	28.8	0	1	45	0.00	29.778 
08:20	36.0	36.0	36.0	74	28.5	0	3	45	0.00	29.779 
08:25	36.0	36.0	36.0	74	28.5	0	3	45	0.00	29.782 
08:30	36.2	36.2	36.2	74	28.7	0	1	135	0.00	29.781 
08:35	36.3	36.3	36.3	74	28.8	0	1	135	0.00	29.781 
08:40	36.3	36.3	36.3	73	28.5	0	2	135	0.00	29.779 
08:45	36.5	36.5	36.5	73	28.7	0	3	135	0.00	29.776 
08:50	36.5	36.5	36.5	72	28.3	1	5	45	0.00	29.775 
08:55	36.6	36.6	36.6	72	28.4	0	2	45	0.00	29.780 
09:00	36.8	36.8	36.8	71	28.3	0	2	22	0.00	29.782 
09:05	36.9	36.9	36.9	71	28.4	0	1	22	0.00	29.782 
09:10	37.0	37.0	37.0	71	28.5	0	1	22	0.00	29.790 
09:15	37.2	37.2	37.2	70	28.3	0	2	45	0.00	29.789 
09:20	37.2	37.2	37.2	70	28.3	0	3	45	0.00	29.796 
09:25	37.3	37.3	37.3	69	28.1	0	2	45	0.00	29.796 
09:30	37.5	37.5	37.5	70	28.6	0	1	45	0.00	29.797 
09:35	37.5	37.5	37.5	69	28.3	0	2	45	0.00	29.798 
09:40	37.6	37.6	37.6	68	28.0	0	2	45	0.00	29.798 
09:45	37.8	37.8	37.8	68	28.2	0	2	45	0.00	29.798 
09:50	37.8	37.8	37.8	68	28.2	0	1	45	0.00	29.799 
09:55	37.9	37.9	37.9	68	28.3	0	2	45	0.00	29.797 
10:00	37.9	37.9	37.9	67	27.9	0	2	45	0.00	29.798 
10:05	37.9	37.9	37.9	68	28.3	0	1	45	0.00	29.799 
10:10	37.9	37.9	37.9	69	28.7	0	1	45	0.00	29.799 
10:15	37.8	37.8	37.8	66	27.5	0	3	45	0.00	29.799 
10:20	37.8	37.8	37.8	67	27.8	0	1	45	0.00	29.800 
10:25	37.8	37.8	37.8	67	27.8	0	2	45	0.00	29.800 
10:30	37.8	37.8	37.8	68	28.2	0	2	45	0.00	29.802 
10:35	37.8	37.8	37.8	68	28.2	1	3	45	0.00	29.800 
10:40	37.9	37.9	37.9	67	27.9	0	3	45	0.00	29.799 
10:45	37.9	37.9	37.9	67	27.9	0	1	45	0.00	29.803 
10:50	38.0	38.0	38.0	68	28.4	0	1	45	0.00	29.803 
10:55	38.0	38.0	38.0	68	28.4	0	1	45	0.00	29.804 
11:00	38.2	38.2	38.2	67	28.2	0	1	45	0.00	29.802 
11:05	38.2	38.2	38.2	67	28.2	0	1	45	0.00	29.805 
11:10	38.3	38.3	38.3	67	28.3	0	0	---	0.00	29.805 
11:15	38.3	38.3	38.3	67	28.3	0	0	---	0.00	29.803 
11:20	38.5	38.5	38.5	66	28.1	0	1	45	0.00	29.804 
11:25	38.5	38.5	38.5	65	27.8	0	1	45	0.00	29.803 
11:30	38.5	38.5	38.5	65	27.8	0	1	45	0.00	29.803 
11:35	38.5	38.5	38.5	65	27.8	0	0	---	0.00	29.800 
11:40	38.5	38.5	38.5	66	28.1	0	2	22	0.00	29.799 
11:45	38.5	38.5	38.5	65	27.8	0	1	22	0.00	29.798 
11:50	38.5	38.5	38.5	65	27.8	0	1	22	0.00	29.798 
11:55	38.6	38.6	38.6	65	27.9	0	1	22	0.00	29.797 
12:00	38.8	38.8	38.8	65	28.1	0	0	---	0.00	29.795 
12:05	38.9	38.9	38.9	66	28.5	0	1	22	0.00	29.798 
12:10	39.1	39.1	39.1	65	28.3	0	1	22	0.00	29.797 
12:15	39.2	39.2	39.2	64	28.1	0	1	22	0.00	29.798 
12:20	39.3	39.3	39.3	62	27.4	0	1	22	0.00	29.797 
12:25	39.5	39.5	39.5	63	28.0	0	1	22	0.00	29.796 
12:30	39.5	39.5	39.5	61	27.2	0	1	22	0.00	29.796 
12:35	39.6	39.6	39.6	62	27.7	0	1	22	0.00	29.797 
12:40	39.6	39.6	39.6	61	27.3	0	1	22	0.00	29.797 
12:45	39.8	39.8	39.8	61	27.5	0	1	22	0.00	29.795 
12:50	39.8	39.8	39.8	61	27.5	0	0	---	0.00	29.794 
12:55	39.9	39.9	39.9	59	26.7	0	1	22	0.00	29.790 
13:00	39.9	39.9	39.9	60	27.2	0	1	22	0.00	29.787 
13:05	40.1	40.1	40.1	59	26.9	0	1	22	0.00	29.788 
13:10	40.2	40.2	40.2	61	27.8	0	2	22	0.00	29.787 
13:15	40.2	40.2	40.2	60	27.4	0	1	22	0.00	29.786 
13:20	40.3	40.3	40.3	60	27.5	0	1	22	0.00	29.786 
13:25	40.5	40.5	40.5	59	27.3	0	1	22	0.00	29.783 
13:30	40.5	40.5	40.5	59	27.3	0	2	22	0.00	29.781 
13:35	40.6	40.6	40.6	59	27.4	0	2	22	0.00	29.780 
13:40	40.6	40.6	40.6	59	27.4	0	1	22	0.00	29.779 
13:45	40.8	40.8	40.8	59	27.6	0	1	22	0.00	29.776 
13:50	40.8	40.8	40.8	59	27.6	0	1	22	0.00	29.777 
13:55	41.1	41.1	41.1	60	28.3	0	1	22	0.00	29.775 
14:00	41.1	41.1	41.1	59	27.9	0	2	0	0.00	29.773 
14:05	41.2	41.2	41.2	58	27.6	0	1	0	0.00	29.773 
14:10	41.3	41.3	41.3	58	27.7	0	2	0	0.00	29.773 
14:15	41.5	41.5	41.5	58	27.8	0	1	0	0.00	29.773 
14:20	41.5	41.5	41.5	58	27.8	0	2	0	0.00	29.772 
14:25	41.6	41.6	41.6	58	27.9	0	1	0	0.00	29.770 
14:30	41.9	41.9	41.9	57	27.8	0	2	45	0.00	29.770 
14:35	41.9	41.9	41.9	57	27.8	0	2	45	0.00	29.769 
14:40	41.9	41.9	41.9	57	27.8	0	3	45	0.00	29.768 
14:45	41.8	41.8	41.8	58	28.1	1	2	90	0.00	29.768 
14:50	41.6	41.6	41.6	57	27.5	0	2	45	0.00	29.768 
14:55	41.6	41.6	41.6	58	27.9	0	4	45	0.00	29.767 
15:00	41.6	41.6	41.6	58	27.9	1	3	90	0.00	29.767 
15:05	41.6	41.6	41.6	58	27.9	0	2	90	0.00	29.768 
15:10	41.8	41.8	41.8	60	28.9	0	2	68	0.00	29.768 
15:15	41.8	41.8	41.8	59	28.5	1	4	68	0.00	29.768 
15:20	41.8	41.8	41.8	58	28.1	0	2	112	0.00	29.768 
15:25	41.9	41.9	41.9	59	28.6	0	2	112	0.00	29.769 
15:30	41.9	41.9	41.9	58	28.2	1	3	90	0.00	29.769 
15:35	42.1	42.1	42.1	58	28.4	0	2	68	0.00	29.770 
15:40	42.1	42.1	42.1	59	28.8	1	3	68	0.00	29.771 
15:45	42.1	42.1	42.1	58	28.4	0	2	292	0.00	29.773 
15:50	42.2	42.2	42.2	59	28.9	0	1	292	0.00	29.774 
15:55	42.3	42.3	42.3	58	28.6	0	2	292	0.00	29.777 
16:00	42.3	42.3	42.3	58	28.6	0	3	68	0.00	29.780 
16:05	42.3	42.3	42.3	58	28.6	0	2	68	0.00	29.783 
16:10	42.3	42.3	42.3	59	29.0	0	1	68	0.00	29.786 
16:15	42.3	42.3	42.3	58	28.6	1	3	22	0.00	29.791 
16:20	42.3	42.3	42.3	58	28.6	0	1	22	0.00	29.793 
16:25	42.3	42.3	42.3	59	29.0	0	2	22	0.00	29.795 
16:30	42.3	42.3	42.3	59	29.0	0	2	22	0.00	29.795 
16:35	42.2	42.2	42.2	58	28.5	0	3	45	0.00	29.796 
16:40	42.2	42.2	42.2	59	28.9	0	3	45	0.00	29.796 
16:45	42.2	42.2	42.2	59	28.9	0	2	45	0.00	29.798 
16:50	42.2	42.2	42.2	58	28.5	0	2	45	0.00	29.799 
16:55	42.2	42.2	42.2	59	28.9	1	2	45	0.00	29.801 
17:00	42.1	42.1	42.1	59	28.8	0	2	45	0.00	29.803 
17:05	42.1	42.1	42.1	61	29.6	0	2	45	0.00	29.803 
17:10	42.2	42.2	42.2	60	29.3	0	2	45	0.00	29.806 
17:15	42.1	42.1	42.1	61	29.6	1	3	45	0.00	29.809 
17:20	42.1	42.1	42.1	61	29.6	0	2	45	0.00	29.810 
17:25	42.1	42.1	42.1	62	30.0	0	2	45	0.00	29.809 
17:30	42.1	42.1	42.1	60	29.2	0	1	45	0.00	29.811 
17:35	42.1	42.1	42.1	59	28.8	1	2	45	0.00	29.812 
17:40	42.1	42.1	42.1	60	29.2	0	2	45	0.00	29.812 
17:45	42.1	42.1	42.1	60	29.2	0	1	45	0.00	29.813 
17:50	42.1	42.1	42.1	59	28.8	0	1	45	0.00	29.813 
17:55	42.1	42.1	42.1	59	28.8	0	2	45	0.00	29.814 
18:00	42.1	42.1	42.1	58	28.4	1	2	45	0.00	29.816 
18:05	42.1	42.1	42.1	61	29.6	0	2	45	0.00	29.816 
18:10	41.9	41.9	41.9	60	29.0	1	3	45	0.00	29.817 
18:15	41.9	41.9	41.9	61	29.4	0	1	45	0.00	29.820 
18:20	41.8	41.8	41.8	60	28.9	1	2	45	0.00	29.818 
18:25	41.6	41.6	41.6	62	29.6	0	1	45	0.00	29.818 
18:30	41.5	41.5	41.5	62	29.5	0	1	45	0.00	29.823 
18:35	41.2	41.2	41.2	63	29.6	0	1	45	0.00	29.826 
18:40	41.1	41.1	41.1	62	29.1	0	2	45	0.00	29.829 
18:45	40.9	40.9	40.9	63	29.3	0	0	---	0.00	29.829 
18:50	40.6	40.6	40.6	64	29.4	0	1	45	0.00	29.829 
18:55	40.5	40.5	40.5	63	28.9	0	0	---	0.00	29.829 
19:00	40.2	40.2	40.2	64	29.0	0	0	---	0.00	29.834 
19:05	39.9	39.9	39.9	64	28.7	0	0	---	0.00	29.838 
19:10	39.6	39.6	39.6	65	28.8	0	0	---	0.00	29.842 
19:15	39.5	39.5	39.5	65	28.7	0	0	---	0.00	29.842 
19:20	39.2	39.2	39.2	66	28.8	0	0	---	0.00	29.844 
19:25	38.9	38.9	38.9	67	28.9	0	0	---	0.00	29.845 
19:30	38.8	38.8	38.8	67	28.8	0	0	---	0.00	29.846 
19:35	38.8	38.8	38.8	68	29.2	0	0	---	0.00	29.846 
19:40	38.6	38.6	38.6	69	29.3	0	0	---	0.00	29.847 
19:45	38.6	38.6	38.6	69	29.3	0	0	---	0.00	29.847 
19:50	38.5	38.5	38.5	69	29.2	0	0	---	0.00	29.848 
19:55	38.3	38.3	38.3	70	29.4	0	0	---	0.00	29.853 
20:00	38.0	38.0	38.0	70	29.1	0	0	---	0.00	29.856 
20:05	37.9	37.9	37.9	70	29.0	0	0	---	0.00	29.860 
20:10	37.8	37.8	37.8	71	29.3	0	0	---	0.00	29.861 
20:15	37.8	37.8	37.8	71	29.3	0	0	---	0.00	29.863 
20:20	37.6	37.6	37.6	72	29.4	0	0	---	0.00	29.863 
20:25	37.5	37.5	37.5	72	29.3	0	0	---	0.00	29.869 
20:30	37.5	37.5	37.5	72	29.3	0	0	---	0.00	29.874 
20:35	37.6	37.6	37.6	72	29.4	0	0	---	0.00	29.876 
20:40	37.5	37.5	37.5	72	29.3	0	0	---	0.00	29.878 
20:45	37.5	37.5	37.5	72	29.3	0	0	---	0.00	29.879 
20:50	37.3	37.3	37.3	73	29.5	0	0	---	0.00	29.882 
20:55	37.2	37.2	37.2	72	29.0	0	0	---	0.00	29.883 
21:00	37.0	37.0	37.0	73	29.2	0	0	---	0.00	29.888 
21:05	37.0	37.0	37.0	73	29.2	0	2	45	0.00	29.890 
21:10	37.2	37.2	37.2	73	29.4	0	0	---	0.00	29.892 
21:15	37.5	37.5	37.5	73	29.6	0	1	45	0.00	29.893 
21:20	37.8	37.8	37.8	71	29.3	0	2	45	0.00	29.892 
21:25	38.0	38.0	38.0	70	29.1	0	1	45	0.00	29.895 
21:30	38.2	38.2	38.2	69	28.9	0	1	45	0.00	29.900 
21:35	38.2	38.2	38.2	69	28.9	0	1	45	0.00	29.905 
21:40	38.2	38.2	38.2	70	29.3	0	0	---	0.00	29.906 
21:45	38.0	38.0	38.0	70	29.1	0	1	45	0.00	29.908 
21:50	38.0	38.0	38.0	70	29.1	0	1	45	0.00	29.908 
21:55	38.0	38.0	38.0	70	29.1	0	1	45	0.00	29.910 
22:00	38.0	38.0	38.0	70	29.1	0	1	45	0.00	29.912 
22:05	38.0	38.0	38.0	71	29.4	0	1	45	0.00	29.915 
22:10	37.9	37.9	37.9	71	29.4	0	1	45	0.00	29.919 
22:15	37.8	37.8	37.8	71	29.3	0	0	---	0.00	29.922 
22:20	37.6	37.6	37.6	72	29.4	0	1	45	0.00	29.923 
22:25	37.6	37.6	37.6	72	29.4	0	2	45	0.00	29.924 
22:30	37.8	37.8	37.8	71	29.3	1	2	45	0.00	29.925 
22:35	37.8	37.8	37.8	70	28.9	1	3	68	0.00	29.928 
22:40	37.9	37.9	37.9	69	28.7	1	2	45	0.00	29.931 
22:45	37.9	37.9	37.9	69	28.7	1	3	90	0.00	29.934 
22:50	37.9	37.9	37.9	69	28.7	0	2	68	0.00	29.936 
22:55	37.9	37.9	37.9	69	28.7	0	2	68	0.00	29.939 
23:00	37.8	37.8	37.8	69	28.6	0	2	68	0.00	29.939 
23:05	37.6	37.6	37.6	69	28.4	0	2	68	0.00	29.941 
23:10	37.6	37.6	37.6	68	28.0	0	3	68	0.00	29.943 
23:15	37.5	37.5	37.5	68	27.9	1	4	45	0.00	29.946 
23:20	37.5	37.5	37.5	68	27.9	1	3	45	0.00	29.946 
23:25	37.5	37.5	37.5	68	27.9	0	2	90	0.00	29.950 
23:30	37.5	37.5	37.5	68	27.9	0	2	90	0.00	29.950 
23:35	37.3	37.3	37.3	69	28.1	0	1	90	0.00	29.954 
23:40	37.2	37.2	37.2	69	28.0	0	1	90	0.00	29.955 
23:45	37.0	37.0	37.0	69	27.8	0	0	---	0.00	29.955 
23:50	36.9	36.9	36.9	70	28.0	0	1	90	0.00	29.958 
23:55	36.9	36.9	36.9	70	28.0	0	1	90	0.00	29.962 

CoCoRaHS
IN-AL-39
A2 Web Hosting
Creative Commons License
GoDaddy
Look for:

loaded 2017-12-13 10:11:48 • last modified 2010-11-18 10:43:29
Privacy PolicyDisclaimer
• wx.awcolley.com is powered by PmWiki v.2002016 •
• all content (unless otherwise noted) © 2017 A W Colley